Time;durP1;ratioP1;P1;durP2;ratioP2;P2;SDS_P1;SDS_P2;PMS_P1;PMS_P2;Temp;Humidity;BMP_temperature;BMP_pressure;BME280_temperature;BME280_humidity;BME280_pressure;Samples;Min_cycle;Max_cycle;Signal;HPM_P1;HPM_P2
2023/03/25 00:01:28;;;;;;;5.20;1.77;;;;;;;9.65;77.52;99045.75;5072837;28;20425;-63
2023/03/25 00:03:57;;;;;;;5.35;1.20;;;;;;;9.62;78.02;99048.44;5073270;28;20052;-63
2023/03/25 00:06:29;;;;;;;3.38;1.40;;;;;;;9.63;76.91;99041.72;5073042;28;20390;-62
2023/03/25 00:09:11;;;;;;;6.78;1.52;;;;;;;9.71;76.34;99049.16;5073402;28;20049;-63
2023/03/25 00:11:39;;;;;;;3.75;1.77;;;;;;;9.70;76.12;99050.28;5072530;28;20059;-63
2023/03/25 00:14:07;;;;;;;6.00;1.48;;;;;;;9.75;76.32;99042.53;5073014;28;20052;-63
2023/03/25 00:16:38;;;;;;;4.88;1.00;;;;;;;9.72;74.85;99048.81;5072979;28;20052;-62
2023/03/25 00:19:09;;;;;;;4.50;1.10;;;;;;;9.81;74.93;99045.94;5072990;28;20492;-62
2023/03/25 00:21:39;;;;;;;8.98;1.23;;;;;;;9.79;74.65;99039.09;5073134;28;20052;-63
2023/03/25 00:24:31;;;;;;;5.07;1.20;;;;;;;9.75;73.61;99033.41;5072767;28;20059;-63
2023/03/25 00:27:04;;;;;;;4.40;1.42;;;;;;;9.79;73.83;99041.88;5073248;28;20048;-63
2023/03/25 00:29:40;;;;;;;2.90;1.00;;;;;;;9.78;72.69;99035.47;5073480;28;20465;-62
2023/03/25 00:32:11;;;;;;;3.80;1.33;;;;;;;9.69;73.63;99029.22;5072917;28;20055;-63
2023/03/25 00:34:47;;;;;;;3.90;0.93;;;;;;;9.70;73.43;99034.44;5073365;28;20056;-63
2023/03/25 00:37:17;;;;;;;3.55;1.17;;;;;;;9.72;72.33;99031.28;5073052;28;20067;-62
2023/03/25 00:39:49;;;;;;;3.13;1.23;;;;;;;9.58;72.87;99031.63;5073329;28;20057;-62
2023/03/25 00:42:24;;;;;;;4.22;1.08;;;;;;;9.62;71.79;99048.44;5072917;28;20409;-62
2023/03/25 00:44:55;;;;;;;4.90;1.45;;;;;;;9.62;72.46;99038.13;5072892;28;20049;-62
2023/03/25 00:47:23;;;;;;;4.03;1.60;;;;;;;9.54;72.59;99033.47;5073180;28;20049;-62
2023/03/25 00:49:56;;;;;;;3.95;1.23;;;;;;;9.60;72.52;99048.78;5072698;28;20057;-62
2023/03/25 00:52:29;;;;;;;6.57;1.50;;;;;;;9.70;72.61;99028.88;5072661;28;20059;-61
2023/03/25 00:54:57;;;;;;;5.18;2.17;;;;;;;9.79;71.37;99026.00;5073009;28;20497;-62
2023/03/25 00:57:29;;;;;;;4.27;1.40;;;;;;;9.79;71.78;99026.00;5072670;28;20092;-62
2023/03/25 00:59:57;;;;;;;3.83;1.35;;;;;;;9.81;72.14;99029.25;5072381;28;20064;-62
2023/03/25 01:02:38;;;;;;;3.58;1.33;;;;;;;9.88;70.49;99023.09;5072219;28;20053;-61
2023/03/25 01:05:08;;;;;;;6.30;1.60;;;;;;;9.91;71.42;99027.97;5072768;28;20056;-61
2023/03/25 01:07:40;;;;;;;3.90;1.20;;;;;;;9.98;70.99;99031.00;5072313;28;20067;-62
2023/03/25 01:10:15;;;;;;;4.45;1.38;;;;;;;9.99;70.87;99024.28;5075361;28;20048;-62
2023/03/25 01:12:45;;;;;;;3.47;1.48;;;;;;;10.02;70.88;99028.34;5076691;28;20115;-62
2023/03/25 01:15:19;;;;;;;4.20;1.38;;;;;;;10.11;71.27;99027.06;5076885;28;20052;-62
2023/03/25 01:17:57;;;;;;;3.53;1.60;;;;;;;10.18;68.94;99020.91;5076229;28;20052;-61
2023/03/25 01:20:28;;;;;;;6.30;1.75;;;;;;;10.21;69.69;99027.78;5076778;28;20048;-61
2023/03/25 01:22:56;;;;;;;4.45;1.80;;;;;;;10.16;69.06;99024.06;5076314;28;20049;-61
2023/03/25 01:25:28;;;;;;;3.88;1.52;;;;;;;10.22;70.08;99021.03;5076788;28;20049;-61
2023/03/25 01:28:03;;;;;;;4.32;1.30;;;;;;;10.19;69.42;99021.75;5076756;28;20060;-61
2023/03/25 01:30:40;;;;;;;4.95;1.38;;;;;;;10.25;69.04;99025.94;5076572;28;20057;-61
2023/03/25 01:33:11;;;;;;;4.57;1.50;;;;;;;10.25;69.36;99025.94;5076330;28;20402;-61
2023/03/25 01:35:40;;;;;;;4.45;1.35;;;;;;;10.22;69.53;99016.28;5076630;28;20052;-61
2023/03/25 01:38:13;;;;;;;3.85;1.60;;;;;;;10.28;68.81;99014.09;5075925;28;20053;-61
2023/03/25 01:40:45;;;;;;;4.82;1.50;;;;;;;10.27;69.62;99016.06;5076470;28;20052;-61
2023/03/25 01:45:59;;;;;;;4.90;1.20;;;;;;;10.34;69.27;99026.66;5068322;28;20052;-61
2023/03/25 01:48:34;;;;;;;5.40;1.30;;;;;;;10.29;68.33;99011.00;5076131;28;20063;-61
2023/03/25 01:51:07;;;;;;;6.90;2.10;;;;;;;10.26;68.84;99008.88;5076418;28;20060;-61
2023/03/25 01:53:42;;;;;;;6.28;1.65;;;;;;;10.26;68.17;99006.09;5075809;28;20067;-61
2023/03/25 01:56:30;;;;;;;5.93;1.50;;;;;;;10.18;68.93;99028.47;5075998;28;20055;-61
2023/03/25 01:59:03;;;;;;;4.65;1.60;;;;;;;10.23;68.74;99009.56;5075835;28;20508;-61
2023/03/25 02:01:32;;;;;;;3.42;1.55;;;;;;;10.15;67.58;99005.75;5075492;28;20056;-61
2023/03/25 02:04:08;;;;;;;3.58;1.35;;;;;;;10.24;67.18;99002.03;5075807;28;20489;-61
2023/03/25 02:06:42;;;;;;;3.83;1.80;;;;;;;10.16;67.93;98996.25;5075306;28;20063;-61
2023/03/25 02:09:13;;;;;;;5.40;1.50;;;;;;;10.14;67.31;98989.38;5075811;28;20481;-61
2023/03/25 02:11:53;;;;;;;4.97;1.40;;;;;;;10.20;67.14;98981.63;5075279;28;20057;-61
2023/03/25 02:14:23;;;;;;;5.30;1.38;;;;;;;10.23;66.38;98992.88;5075802;28;20053;-61
2023/03/25 02:16:58;;;;;;;;;;;;;;;10.26;65.83;98985.78;5076147;28;20052;-61
2023/03/25 02:20:07;;;;;;;4.00;1.60;;;;;;;10.28;65.54;98986.25;5075628;28;20387;-61
2023/03/25 02:22:55;;;;;;;;;;;;;;;10.24;65.54;99013.97;5033480;28;20049;-61
2023/03/25 02:25:56;;;;;;;7.20;1.90;;;;;;;10.16;65.57;98990.69;5034435;28;19944;-62
2023/03/25 02:28:38;;;;;;;3.47;1.45;;;;;;;10.23;65.47;99001.22;5057901;28;20052;-61
2023/03/25 02:31:24;;;;;;;4.63;1.52;;;;;;;10.26;64.63;98988.56;5075529;28;20083;-61
2023/03/25 02:34:30;;;;;;;3.47;1.40;;;;;;;10.24;65.15;98990.91;5075391;28;20053;-62
2023/03/25 02:37:30;;;;;;;3.40;1.20;;;;;;;10.22;65.44;98990.44;5075084;28;20052;-62
2023/03/25 02:40:08;;;;;;;3.72;1.65;;;;;;;10.29;64.41;98993.44;5074859;28;20055;-61
2023/03/25 02:42:54;;;;;;;5.82;1.50;;;;;;;10.38;64.58;99010.88;5074923;28;20063;-61
2023/03/25 02:45:42;;;;;;;3.42;1.60;;;;;;;10.37;65.20;99003.66;5072636;28;20049;-62
2023/03/25 02:48:30;;;;;;;5.15;1.58;;;;;;;10.42;64.94;99003.44;5074901;28;20052;-62
2023/03/25 02:51:10;;;;;;;5.10;1.65;;;;;;;10.40;64.55;99007.75;5075274;28;20474;-62
2023/03/25 02:53:50;;;;;;;;;;;;;;;10.40;64.12;99000.19;5075506;28;20060;-62
2023/03/25 02:56:24;;;;;;;5.43;1.50;;;;;;;10.50;66.00;98998.94;5074924;28;19995;-62
2023/03/25 02:58:57;;;;;;;4.75;1.25;;;;;;;10.47;65.98;98994.03;5073960;28;20064;-62
2023/03/25 03:01:25;;;;;;;4.90;1.40;;;;;;;10.46;65.17;99006.34;5074835;28;20052;-62
2023/03/25 03:04:03;;;;;;;2.90;1.40;;;;;;;10.56;65.86;99005.84;5074442;28;20053;-62
2023/03/25 03:06:40;;;;;;;3.95;1.70;;;;;;;10.56;65.24;98998.34;5074584;28;20481;-62
2023/03/25 03:09:26;;;;;;;3.50;1.38;;;;;;;10.56;65.87;98994.72;5074229;28;20052;-62
2023/03/25 03:12:07;;;;;;;3.85;1.52;;;;;;;10.43;67.55;98988.34;5074124;28;20367;-63
2023/03/25 03:14:50;;;;;;;4.32;1.52;;;;;;;10.54;67.65;98994.25;5074565;28;20068;-62
2023/03/25 03:17:24;;;;;;;3.35;1.50;;;;;;;10.50;67.48;98988.59;5074625;28;20060;-62
2023/03/25 03:19:56;;;;;;;4.85;1.70;;;;;;;10.44;65.52;98990.00;5074054;28;20142;-62
2023/03/25 03:22:56;;;;;;;2.85;1.20;;;;;;;10.45;65.72;98990.78;5074001;28;20059;-62
2023/03/25 03:25:31;;;;;;;;;;;;;;;10.34;65.36;98984.91;5074127;28;20048;-62
2023/03/25 03:28:07;;;;;;;3.42;1.50;;;;;;;10.31;65.17;98991.97;5073570;28;20300;-61
2023/03/25 03:30:53;;;;;;;2.70;1.40;;;;;;;10.30;64.25;98989.53;5073865;28;20504;-63
2023/03/25 03:33:26;;;;;;;3.55;1.27;;;;;;;10.28;63.95;98994.59;5073347;28;20509;-62
2023/03/25 03:36:00;;;;;;;3.35;1.20;;;;;;;10.24;63.62;99000.06;5073711;28;20470;-61
2023/03/25 03:38:34;;;;;;;2.78;1.38;;;;;;;10.35;63.89;98992.06;5073391;28;20489;-61
2023/03/25 03:41:09;;;;;;;1.85;1.08;;;;;;;10.44;64.34;98994.75;5073497;28;20057;-61
2023/03/25 03:43:48;;;;;;;2.75;1.17;;;;;;;10.49;64.54;98988.94;5073855;28;20051;-62
2023/03/25 03:46:26;;;;;;;3.40;1.20;;;;;;;10.44;64.06;98978.84;5073419;28;20495;-62
2023/03/25 03:49:00;;;;;;;4.15;1.20;;;;;;;10.54;64.09;98989.50;5074193;28;20058;-61
2023/03/25 03:51:32;;;;;;;3.05;1.30;;;;;;;10.49;63.22;98983.38;5073829;28;20052;-61
2023/03/25 03:54:14;;;;;;;3.78;1.45;;;;;;;10.58;62.91;98986.81;5073583;28;20052;-61
2023/03/25 03:56:45;;;;;;;2.38;1.13;;;;;;;10.54;62.91;98992.31;5073545;28;20052;-62
2023/03/25 03:59:22;;;;;;;3.03;1.70;;;;;;;10.51;62.85;98994.97;5073314;28;20052;-61
2023/03/25 04:02:22;;;;;;;4.32;1.90;;;;;;;10.46;63.36;98989.66;5073437;28;20056;-61
2023/03/25 04:05:02;;;;;;;4.18;1.50;;;;;;;10.43;63.28;99010.63;5073684;28;20060;-61
2023/03/25 04:07:37;;;;;;;2.83;1.52;;;;;;;10.45;64.74;98996.38;5072992;28;20056;-60
2023/03/25 04:10:13;;;;;;;3.67;1.70;;;;;;;10.42;64.79;98985.94;5073173;28;20067;-62
2023/03/25 04:12:49;;;;;;;3.83;1.52;;;;;;;10.47;64.76;98989.28;5072660;28;20056;-62
2023/03/25 04:15:19;;;;;;;4.80;1.75;;;;;;;10.43;63.90;98998.69;5073434;28;20059;-62
2023/03/25 04:17:47;;;;;;;;;;;;;;;10.46;65.13;98987.66;5073430;28;20056;-62
2023/03/25 04:20:22;;;;;;;3.35;1.75;;;;;;;10.45;65.12;98994.38;5073174;28;19920;-62
2023/03/25 04:22:51;;;;;;;6.10;2.50;;;;;;;10.48;65.49;98984.53;5072907;28;20048;-62
2023/03/25 04:25:20;;;;;;;2.95;1.67;;;;;;;10.38;64.81;98974.69;5072769;28;20131;-62
2023/03/25 04:27:57;;;;;;;4.53;1.80;;;;;;;10.28;65.14;98980.69;5073159;28;20060;-62
2023/03/25 04:30:28;;;;;;;5.57;2.13;;;;;;;10.26;64.59;98980.22;5072979;28;20056;-62
2023/03/25 04:32:55;;;;;;;6.38;2.17;;;;;;;10.13;64.66;98983.00;5072888;28;20052;-62
2023/03/25 04:35:28;;;;;;;4.93;2.17;;;;;;;10.15;64.09;99000.19;5072745;28;20048;-62
2023/03/25 04:38:00;;;;;;;5.10;1.95;;;;;;;10.07;63.72;98992.75;5072545;28;20052;-63
2023/03/25 04:40:39;;;;;;;4.15;1.60;;;;;;;10.03;64.49;98988.25;5072353;28;20075;-65
2023/03/25 04:43:07;;;;;;;5.03;1.95;;;;;;;10.01;63.72;98987.78;5072009;28;20052;-62
2023/03/25 04:45:36;;;;;;;5.10;1.58;;;;;;;9.97;63.85;98996.00;5072490;28;20044;-62
2023/03/25 04:48:18;;;;;;;3.65;1.50;;;;;;;10.07;63.12;98998.31;5072503;28;20052;-62
2023/03/25 04:50:47;;;;;;;2.95;1.30;;;;;;;10.10;63.95;98992.06;5072610;28;20409;-62
2023/03/25 04:53:14;;;;;;;3.63;1.50;;;;;;;10.14;63.37;99008.88;5072614;28;20052;-62
2023/03/25 04:55:46;;;;;;;3.15;1.50;;;;;;;10.10;63.86;99003.19;5073075;28;20477;-62
2023/03/25 04:58:24;;;;;;;5.10;2.17;;;;;;;10.11;64.46;98993.69;5072613;28;20048;-62
2023/03/25 05:01:20;;;;;;;5.38;1.90;;;;;;;10.08;65.53;98988.81;5072541;28;20064;-62
2023/03/25 05:03:49;;;;;;;6.55;2.17;;;;;;;9.97;65.52;98987.66;5072677;28;20052;-63
2023/03/25 05:06:28;;;;;;;3.75;1.63;;;;;;;9.88;66.08;98990.53;5072617;28;20060;-63
2023/03/25 05:09:00;;;;;;;;;;;;;;;9.85;65.32;98990.41;5073012;28;20063;-62
2023/03/25 05:11:30;;;;;;;6.20;2.33;;;;;;;9.82;65.96;98991.13;5071956;28;20373;-62
2023/03/25 05:17:01;;;;;;;4.35;2.20;;;;;;;9.84;66.02;98974.91;5071471;28;20381;-61
2023/03/25 05:19:51;;;;;;;5.75;2.13;;;;;;;9.78;66.33;98973.50;5072356;28;20048;-61
2023/03/25 05:22:24;;;;;;;6.38;2.50;;;;;;;9.82;67.01;98980.00;5069322;28;20049;-61
2023/03/25 05:25:01;;;;;;;6.05;2.38;;;;;;;9.84;66.83;98983.25;5072414;28;20055;-62
2023/03/25 05:27:38;;;;;;;7.22;2.50;;;;;;;9.84;66.45;98994.38;5072271;28;20101;-62
2023/03/25 05:30:10;;;;;;;4.13;2.22;;;;;;;9.83;65.73;99004.69;5072402;28;20053;-62
2023/03/25 05:32:44;;;;;;;4.95;2.28;;;;;;;9.88;65.93;98984.97;5072672;28;20044;-61
2023/03/25 05:35:25;;;;;;;9.82;2.15;;;;;;;9.92;66.04;98980.34;5072550;28;20056;-61
2023/03/25 05:37:56;;;;;;;4.40;1.90;;;;;;;9.99;65.71;98990.88;5072781;28;20060;-61
2023/03/25 05:40:33;;;;;;;5.00;2.00;;;;;;;10.02;64.29;98992.19;5072317;28;20056;-62
2023/03/25 05:43:01;;;;;;;7.15;2.22;;;;;;;10.00;64.42;98992.53;5072231;28;20055;-61
2023/03/25 05:48:17;;;;;;;5.22;2.53;;;;;;;9.89;66.05;98996.91;5072311;28;20059;-60
2023/03/25 05:50:50;;;;;;;7.18;2.25;;;;;;;9.91;67.95;99006.56;5072714;28;20056;-63
2023/03/25 05:53:19;;;;;;;4.35;2.03;;;;;;;9.92;68.08;99010.13;5072588;28;20512;-61
2023/03/25 05:55:55;;;;;;;6.50;2.40;;;;;;;9.78;68.32;99004.88;5074627;28;20056;-61
2023/03/25 05:58:45;;;;;;;4.57;2.00;;;;;;;9.75;69.59;99008.38;5076016;28;20505;-62
2023/03/25 06:01:27;;;;;;;5.88;2.05;;;;;;;9.78;70.04;99012.44;5075781;28;20052;-61
2023/03/25 06:04:11;;;;;;;6.20;2.25;;;;;;;9.83;70.09;99009.44;5073202;28;20048;-62
2023/03/25 06:06:42;;;;;;;4.05;1.80;;;;;;;9.79;69.35;99000.97;5075427;28;20048;-61
2023/03/25 06:09:10;;;;;;;4.35;2.05;;;;;;;9.85;69.61;99012.66;5075431;28;20056;-62
2023/03/25 06:11:38;;;;;;;6.22;2.00;;;;;;;9.79;69.49;99012.09;5075102;28;20429;-62
2023/03/25 06:14:07;;;;;;;6.97;2.00;;;;;;;9.83;68.52;99009.44;5075634;28;20048;-62
2023/03/25 06:16:34;;;;;;;7.70;2.00;;;;;;;9.92;68.53;99007.34;5075126;28;20040;-62
2023/03/25 06:19:11;;;;;;;3.05;1.77;;;;;;;9.96;67.47;99024.97;5074927;28;20056;-61
2023/03/25 06:21:40;;;;;;;3.40;1.83;;;;;;;9.96;68.09;99016.63;5075284;28;20063;-61
2023/03/25 06:24:08;;;;;;;4.90;2.20;;;;;;;9.94;67.36;99024.50;5075438;28;20057;-61
2023/03/25 06:26:44;;;;;;;3.00;1.48;;;;;;;9.86;67.28;99017.06;5075044;28;20052;-61
2023/03/25 06:29:23;;;;;;;4.53;1.88;;;;;;;9.98;68.05;99025.44;5075005;28;20052;-62
2023/03/25 06:31:54;;;;;;;3.78;1.80;;;;;;;9.88;68.23;99034.22;5075419;28;20048;-63
2023/03/25 06:34:33;;;;;;;4.53;2.05;;;;;;;10.00;67.81;99020.34;5075145;28;20048;-61
2023/03/25 06:40:23;;;;;;;4.50;1.90;;;;;;;10.22;66.95;99009.91;4974468;28;20062;-62
2023/03/25 06:42:56;;;;;;;7.40;2.05;;;;;;;10.30;66.49;99006.25;5025609;28;20045;-62
2023/03/25 06:45:35;;;;;;;5.40;1.88;;;;;;;10.35;66.29;99001.25;5065747;28;20044;-62
2023/03/25 06:48:05;;;;;;;5.03;2.22;;;;;;;10.46;65.60;99004.38;5074853;28;20056;-62
2023/03/25 06:50:33;;;;;;;6.13;2.33;;;;;;;10.52;65.41;99025.25;5074539;28;20052;-63
2023/03/25 06:53:10;;;;;;;6.90;2.58;;;;;;;10.34;66.40;99019.09;5074830;28;20071;-63
2023/03/25 06:55:46;;;;;;;4.28;1.83;;;;;;;10.29;66.68;99018.47;5074454;28;20044;-62
2023/03/25 06:58:17;;;;;;;4.72;2.63;;;;;;;10.21;66.52;99019.44;5073487;28;20060;-62
2023/03/25 07:00:47;;;;;;;6.63;2.47;;;;;;;10.27;66.42;99029.19;5073834;28;20045;-62
2023/03/25 07:03:17;;;;;;;6.18;2.30;;;;;;;10.33;66.60;99025.00;5074474;28;20052;-62
2023/03/25 07:05:47;;;;;;;5.55;2.33;;;;;;;10.52;65.87;99019.69;5074412;28;20072;-62
2023/03/25 07:08:20;;;;;;;6.85;2.30;;;;;;;10.69;65.79;99021.41;5074152;28;20156;-62
2023/03/25 07:11:18;;;;;;;5.35;2.10;;;;;;;10.72;65.06;99037.38;5074121;28;20064;-63
2023/03/25 07:13:54;;;;;;;5.63;2.45;;;;;;;10.55;67.92;99040.44;5074095;28;20057;-62
2023/03/25 07:16:29;;;;;;;7.80;2.17;;;;;;;10.59;69.04;99032.19;5074388;28;20465;-62
2023/03/25 07:19:00;;;;;;;6.20;2.70;;;;;;;10.38;69.66;99037.91;5069484;28;20076;-62
2023/03/25 07:21:31;;;;;;;7.30;2.83;;;;;;;10.37;70.32;99050.97;5074025;28;20522;-62
2023/03/25 07:24:06;;;;;;;8.98;3.08;;;;;;;10.34;70.73;99055.28;5074126;28;20060;-62
2023/03/25 07:26:39;;;;;;;6.57;2.70;;;;;;;10.33;71.69;99041.69;5074024;28;20053;-62
2023/03/25 07:29:18;;;;;;;4.65;2.85;;;;;;;10.25;70.70;99048.19;5073991;28;20075;-62
2023/03/25 07:31:48;;;;;;;5.50;2.40;;;;;;;10.13;70.91;99058.13;5072770;28;20056;-63
2023/03/25 07:34:15;;;;;;;4.68;2.42;;;;;;;10.22;71.25;99060.00;5073763;28;20378;-62
2023/03/25 07:36:43;;;;;;;9.88;2.40;;;;;;;10.29;70.61;99054.66;5073546;28;20056;-62
2023/03/25 07:39:11;;;;;;;7.60;2.38;;;;;;;10.36;70.36;99049.38;5073630;28;20048;-62
2023/03/25 07:41:42;;;;;;;4.65;2.10;;;;;;;10.41;70.37;99063.03;5073613;28;20048;-62
2023/03/25 07:44:11;;;;;;;8.48;2.80;;;;;;;10.40;69.65;99069.78;5073230;28;20049;-62
2023/03/25 07:46:38;;;;;;;8.97;2.33;;;;;;;10.49;69.29;99058.53;5073235;28;20516;-62
2023/03/25 07:49:05;;;;;;;5.57;2.15;;;;;;;10.49;67.90;99058.53;5073404;28;20478;-63
2023/03/25 07:51:35;;;;;;;5.32;2.20;;;;;;;10.42;68.22;99061.09;5073244;28;20063;-62
2023/03/25 07:54:02;;;;;;;6.35;2.00;;;;;;;10.53;67.52;99063.03;5073146;28;20350;-62
2023/03/25 07:56:31;;;;;;;5.72;2.63;;;;;;;10.77;67.43;99055.81;5073266;28;20049;-63
2023/03/25 07:58:58;;;;;;;5.95;2.20;;;;;;;11.16;66.44;99054.22;5073157;28;20052;-63
2023/03/25 08:01:25;;;;;;;4.13;2.03;;;;;;;11.38;64.58;99052.06;5073259;28;20063;-64
2023/03/25 08:03:52;;;;;;;4.75;2.50;;;;;;;11.48;63.70;99061.91;5072910;28;20481;-63
2023/03/25 08:06:23;;;;;;;6.75;2.33;;;;;;;11.75;63.24;99052.69;5072865;28;20067;-63
2023/03/25 08:08:54;;;;;;;5.45;2.88;;;;;;;11.70;62.33;99055.75;5073013;28;20052;-63
2023/03/25 08:11:21;;;;;;;8.02;2.70;;;;;;;11.83;61.22;99047.31;5072843;28;20057;-62
2023/03/25 08:13:50;;;;;;;6.15;2.20;;;;;;;11.76;61.26;99054.31;5072531;28;20418;-62
2023/03/25 08:16:18;;;;;;;6.20;2.03;;;;;;;11.88;60.60;99053.47;5072671;28;20051;-63
2023/03/25 08:18:45;;;;;;;5.07;2.67;;;;;;;11.85;60.97;99067.31;5072264;28;20048;-62
2023/03/25 08:21:12;;;;;;;7.10;3.28;;;;;;;11.69;60.14;99059.69;5072472;28;20067;-62
2023/03/25 08:23:39;;;;;;;5.30;2.08;;;;;;;11.54;60.40;99074.41;5072838;28;20056;-63
2023/03/25 08:26:07;;;;;;;6.40;2.08;;;;;;;11.55;59.76;99071.28;5072505;28;20049;-62
2023/03/25 08:28:34;;;;;;;7.68;2.22;;;;;;;11.81;58.98;99066.41;5072691;28;20055;-62
2023/03/25 08:31:07;;;;;;;4.97;1.77;;;;;;;11.65;58.63;99069.13;5072508;28;20060;-63
2023/03/25 08:33:39;;;;;;;6.80;2.10;;;;;;;11.85;57.97;99084.03;5072751;28;20049;-63
2023/03/25 08:36:08;;;;;;;3.90;1.80;;;;;;;11.76;57.81;99061.91;5072307;28;20487;-62
2023/03/25 08:38:36;;;;;;;5.85;2.00;;;;;;;11.51;58.79;99075.13;5072800;28;20048;-62
2023/03/25 08:41:03;;;;;;;7.13;1.88;;;;;;;11.49;58.55;99083.84;5072369;28;20049;-62
2023/03/25 08:43:31;;;;;;;5.25;1.92;;;;;;;11.41;58.80;99087.59;5072320;28;20052;-63
2023/03/25 08:45:58;;;;;;;6.47;2.53;;;;;;;11.46;59.38;99078.16;5072183;28;20056;-63
2023/03/25 08:48:26;;;;;;;7.22;2.00;;;;;;;11.46;59.29;99067.00;5072229;28;20060;-62
2023/03/25 08:50:54;;;;;;;7.28;2.10;;;;;;;11.46;58.65;99083.75;5072359;28;20481;-63
2023/03/25 08:53:21;;;;;;;6.38;1.95;;;;;;;11.55;58.46;99073.25;5072641;28;20060;-62
2023/03/25 08:55:51;;;;;;;6.43;1.95;;;;;;;12.08;57.34;99081.50;5072315;28;20135;-63
2023/03/25 08:58:21;;;;;;;5.95;2.40;;;;;;;12.49;55.46;99068.94;5072375;28;20074;-62
2023/03/25 09:00:53;;;;;;;;;;;;;;;13.90;53.00;99062.44;5072986;28;20076;-62
2023/03/25 09:03:20;;;;;;;6.32;2.28;;;;;;;13.83;52.25;99079.06;5072671;28;20297;-62
2023/03/25 09:05:49;;;;;;;4.82;1.83;;;;;;;14.15;51.49;99062.88;5072176;28;20059;-62
2023/03/25 09:08:16;;;;;;;8.00;2.30;;;;;;;13.62;52.52;99059.88;5072374;28;20060;-62
2023/03/25 09:10:47;;;;;;;6.38;2.13;;;;;;;13.42;52.47;99073.09;5071979;28;20069;-61
2023/03/25 09:13:14;;;;;;;6.72;2.42;;;;;;;13.17;53.12;99059.34;5072401;28;20052;-61
2023/03/25 09:15:42;;;;;;;6.38;1.90;;;;;;;13.08;53.77;99049.53;5071822;28;20515;-61
2023/03/25 09:18:10;;;;;;;5.70;2.35;;;;;;;13.07;52.70;99053.53;5071944;28;20045;-61
2023/03/25 09:20:37;;;;;;;5.75;2.03;;;;;;;12.85;53.98;99064.22;5071818;28;20059;-61
2023/03/25 09:23:05;;;;;;;7.57;2.20;;;;;;;12.67;53.30;99060.22;5071889;28;20044;-60
2023/03/25 09:25:33;;;;;;;7.13;1.98;;;;;;;12.88;54.32;99051.50;5071878;28;20044;-61
2023/03/25 09:28:00;;;;;;;7.05;2.10;;;;;;;12.90;53.22;99058.34;5072113;28;20059;-61
2023/03/25 09:30:28;;;;;;;4.78;1.75;;;;;;;13.36;52.86;99064.16;5073711;28;20055;-61
2023/03/25 09:32:55;;;;;;;6.28;1.98;;;;;;;13.74;52.33;99056.13;5075649;28;20056;-61
2023/03/25 09:35:22;;;;;;;8.02;2.28;;;;;;;14.99;49.07;99054.59;5075746;28;20052;-61
2023/03/25 09:37:49;;;;;;;6.10;2.25;;;;;;;14.76;49.15;99065.88;5075492;28;20052;-61
2023/03/25 09:40:20;;;;;;;7.38;2.50;;;;;;;14.34;49.84;99061.19;5075874;28;20053;-61
2023/03/25 09:43:00;;;;;;;6.75;2.20;;;;;;;14.10;50.33;99065.19;5075379;28;20397;-61
2023/03/25 09:45:34;;;;;;;5.00;1.95;;;;;;;14.01;50.12;99052.22;5075732;28;20052;-61
2023/03/25 09:48:07;;;;;;;6.07;2.00;;;;;;;14.06;50.14;99059.50;5075636;28;20048;-61
2023/03/25 09:50:36;;;;;;;7.65;2.17;;;;;;;13.98;51.62;99046.56;5075659;28;20059;-61
2023/03/25 09:53:12;;;;;;;8.27;2.13;;;;;;;13.73;51.37;99072.09;5075175;28;20078;-60
2023/03/25 09:55:46;;;;;;;6.78;2.22;;;;;;;16.71;45.54;99041.59;5075227;28;20055;-61
2023/03/25 09:58:30;;;;;;;6.53;1.92;;;;;;;18.40;41.73;99034.63;5075362;28;20543;-61
2023/03/25 10:01:05;;;;;;;8.02;2.10;;;;;;;18.77;40.38;99053.09;5075401;28;20397;-61
2023/03/25 10:03:48;;;;;;;9.30;2.30;;;;;;;18.68;39.89;99056.34;5075446;28;20064;-60
2023/03/25 10:06:19;;;;;;;4.88;2.17;;;;;;;17.75;42.36;99040.13;5075385;28;20063;-61
2023/03/25 10:09:02;;;;;;;7.65;1.75;;;;;;;17.54;42.06;99054.16;5075258;28;20064;-61
2023/03/25 10:11:40;;;;;;;5.13;1.90;;;;;;;18.36;40.14;99051.53;5074981;28;20056;-60
2023/03/25 10:14:11;;;;;;;7.72;3.47;;;;;;;17.67;41.62;99038.50;5075177;28;20048;-60
2023/03/25 10:16:51;;;;;;;6.63;2.15;;;;;;;16.63;42.90;99054.78;5075154;28;20053;-60
2023/03/25 10:19:31;;;;;;;;;;;;;;;16.20;44.08;99046.81;5075109;28;20057;-60
2023/03/25 10:22:04;;;;;;;10.02;2.10;;;;;;;16.14;43.95;99056.78;5075144;28;19927;-60
2023/03/25 10:24:34;;;;;;;8.00;3.90;;;;;;;16.00;43.93;99051.84;5074484;28;20052;-60
2023/03/25 10:27:06;;;;;;;6.05;1.75;;;;;;;16.41;43.57;99048.19;5074928;28;20481;-60
2023/03/25 10:29:37;;;;;;;5.43;2.13;;;;;;;16.33;43.62;99057.75;5074803;28;20387;-60
2023/03/25 10:32:12;;;;;;;5.53;2.10;;;;;;;15.83;44.80;99063.69;5074720;28;20053;-60
2023/03/25 10:34:45;;;;;;;6.03;1.90;;;;;;;17.19;43.69;99062.00;5074683;28;20059;-60
2023/03/25 10:37:20;;;;;;;7.47;1.92;;;;;;;16.83;43.09;99056.16;5074714;28;20409;-60
2023/03/25 10:39:48;;;;;;;9.40;2.22;;;;;;;16.36;44.77;99057.00;5074272;28;20048;-60
2023/03/25 10:42:25;;;;;;;6.95;2.13;;;;;;;16.04;45.30;99057.50;5074580;28;20512;-60
2023/03/25 10:44:53;;;;;;;8.45;2.10;;;;;;;15.68;45.57;99076.72;5074600;28;20060;-60
2023/03/25 10:47:27;;;;;;;7.70;2.17;;;;;;;16.58;44.76;99058.78;5074856;28;20055;-60
2023/03/25 10:49:55;;;;;;;5.57;1.65;;;;;;;16.71;43.94;99084.56;5074468;28;20060;-61
2023/03/25 10:52:23;;;;;;;8.25;2.67;;;;;;;16.31;45.04;99060.94;5074819;28;20053;-61
2023/03/25 10:54:54;;;;;;;6.47;2.28;;;;;;;15.62;45.76;99081.06;5074643;28;20055;-60
2023/03/25 10:57:27;;;;;;;5.57;2.17;;;;;;;15.36;46.08;99071.53;5074242;28;20040;-60
2023/03/25 11:00:01;;;;;;;8.73;2.50;;;;;;;16.13;44.76;99066.44;5074730;28;20387;-61
2023/03/25 11:02:31;;;;;;;6.28;2.50;;;;;;;17.87;40.50;99063.50;5074533;28;20071;-61
2023/03/25 11:05:01;;;;;;;7.43;2.10;;;;;;;18.90;38.23;99074.09;5074507;28;20055;-60
2023/03/25 11:07:33;;;;;;;5.68;1.88;;;;;;;19.21;38.62;99065.94;5074386;28;20048;-62
2023/03/25 11:10:19;;;;;;;5.68;1.92;;;;;;;17.31;41.73;99066.50;5074299;28;20052;-60
2023/03/25 11:12:50;;;;;;;6.75;2.33;;;;;;;17.40;41.73;99077.41;5074262;28;20052;-60
2023/03/25 11:15:22;;;;;;;5.78;1.90;;;;;;;18.45;40.16;99054.72;5074109;28;20412;-60
2023/03/25 11:17:58;;;;;;;7.85;2.20;;;;;;;21.94;34.57;99063.78;5073649;28;20063;-61
2023/03/25 11:20:29;;;;;;;5.75;1.73;;;;;;;21.13;34.28;99076.47;5073928;28;20056;-61
2023/03/25 11:23:05;;;;;;;8.05;2.42;;;;;;;18.86;38.39;99085.38;5074137;28;20052;-61
2023/03/25 11:25:40;;;;;;;6.90;2.58;;;;;;;19.93;39.96;99082.63;5073655;28;20055;-61
2023/03/25 11:28:16;;;;;;;5.88;2.05;;;;;;;20.02;40.29;99080.16;5073956;28;20055;-61
2023/03/25 11:31:23;;;;;;;5.32;2.17;;;;;;;17.88;41.84;99090.50;5073734;28;21153;-61
2023/03/25 11:34:05;;;;;;;9.27;2.72;;;;;;;16.11;48.89;99096.91;5069976;28;20059;-61
2023/03/25 11:36:34;;;;;;;6.70;2.22;;;;;;;15.58;53.59;99099.84;5073533;28;20056;-61
2023/03/25 11:39:03;;;;;;;;;;;;;;;15.10;53.68;99094.84;5074008;28;20052;-61
2023/03/25 11:41:33;;;;;;;7.53;2.38;;;;;;;14.71;54.91;99102.66;5073859;28;19920;-61
2023/03/25 11:44:03;;;;;;;5.45;1.70;;;;;;;14.61;54.29;99099.31;5073807;28;20056;-61
2023/03/25 11:46:30;;;;;;;;;;;;;;;14.70;55.09;99089.81;5074279;28;20064;-61
2023/03/25 11:49:07;;;;;;;8.63;2.15;;;;;;;15.19;54.30;99098.16;5073622;28;19927;-61
2023/03/25 11:51:38;;;;;;;9.52;3.20;;;;;;;15.45;52.75;99087.28;5073542;28;20064;-61
2023/03/25 11:54:08;;;;;;;10.38;2.70;;;;;;;15.24;52.70;99091.41;5073043;28;20482;-61
2023/03/25 11:56:38;;;;;;;9.73;3.15;;;;;;;15.11;53.19;99076.81;5073361;28;20060;-61
2023/03/25 11:59:17;;;;;;;9.50;2.42;;;;;;;15.02;53.38;99074.28;5073058;28;20056;-61
2023/03/25 12:01:48;;;;;;;7.75;2.72;;;;;;;14.68;53.85;99086.56;5073308;28;20048;-61
2023/03/25 12:04:19;;;;;;;9.50;2.78;;;;;;;14.31;56.23;99081.53;5072936;28;20060;-60
2023/03/25 12:06:59;;;;;;;10.35;2.63;;;;;;;14.21;56.69;99086.59;5073224;28;20055;-61
2023/03/25 12:09:27;;;;;;;8.73;2.47;;;;;;;13.99;57.82;99092.97;5073270;28;20059;-61
2023/03/25 12:12:09;;;;;;;7.63;2.53;;;;;;;13.85;59.15;99115.09;5072937;28;20052;-62
2023/03/25 12:14:52;;;;;;;10.00;2.60;;;;;;;13.35;61.46;99118.47;5073056;28;20382;-61
2023/03/25 12:17:31;;;;;;;5.82;2.17;;;;;;;13.34;62.62;99108.47;5072745;28;20045;-61
2023/03/25 12:20:12;;;;;;;6.45;2.40;;;;;;;16.79;54.74;99088.25;5072812;28;20048;-62